Time;durP1;ratioP1;P1;durP2;ratioP2;P2;SDS_P1;SDS_P2;PMS_P1;PMS_P2;Temp;Humidity;BMP_temperature;BMP_pressure;BME280_temperature;BME280_humidity;BME280_pressure;Samples;Min_cycle;Max_cycle;Signal;HPM_P1;HPM_P2
2023/10/28 00:01:11;;;;;;;0.50;0.50;;;;;;;-145.69;54.93;52222.59;5075701;28;20207;-84
2023/10/28 00:03:37;;;;;;;1.53;0.50;;;;;;;-145.69;54.60;52216.66;5075344;28;20203;-83
2023/10/28 00:06:04;;;;;;;2.07;0.50;;;;;;;-145.69;53.74;52236.44;5074985;28;20198;-83
2023/10/28 00:08:32;;;;;;;1.50;0.50;;;;;;;-145.69;53.80;52238.44;5075588;28;20715;-84
2023/10/28 00:10:59;;;;;;;0.90;0.40;;;;;;;-145.69;53.21;52258.22;5075649;28;20199;-84
2023/10/28 00:13:25;;;;;;;2.00;0.83;;;;;;;-145.69;52.96;52232.50;5075500;28;20294;-83
2023/10/28 00:15:52;;;;;;;0.90;0.40;;;;;;;-145.69;53.67;52254.28;5075476;28;20233;-83
2023/10/28 00:18:19;;;;;;;2.05;0.90;;;;;;;-145.69;53.82;52190.91;5075741;28;20202;-84
2023/10/28 00:20:45;;;;;;;1.47;0.50;;;;;;;-145.69;52.97;52226.53;5076078;28;20202;-83
2023/10/28 00:23:13;;;;;;;1.83;0.50;;;;;;;-145.69;53.25;52222.59;5075582;28;20290;-84
2023/10/28 00:25:41;;;;;;;2.60;0.70;;;;;;;-145.69;52.92;52206.75;5075412;28;20198;-84
2023/10/28 00:28:09;;;;;;;0.90;0.50;;;;;;;-145.69;52.61;52208.72;5075204;28;20199;-84
2023/10/28 00:30:38;;;;;;;2.37;0.80;;;;;;;-145.69;52.44;52202.78;5075466;28;20203;-84
2023/10/28 00:33:05;;;;;;;1.87;1.00;;;;;;;-145.69;52.57;52224.56;5075174;28;20202;-83
2023/10/28 00:35:31;;;;;;;0.67;0.60;;;;;;;-145.69;52.53;52230.50;5085758;28;20198;-83
2023/10/28 00:37:58;;;;;;;1.63;0.53;;;;;;;-145.69;52.98;52226.53;5095377;28;20202;-83
2023/10/28 00:40:25;;;;;;;2.10;0.93;;;;;;;-145.69;53.01;52202.78;5089295;28;20206;-83
2023/10/28 00:42:53;;;;;;;2.00;0.60;;;;;;;-145.69;53.11;52214.66;5074813;28;20238;-82
2023/10/28 00:45:20;;;;;;;4.43;0.90;;;;;;;-145.69;53.72;52190.91;5075224;28;20654;-85
2023/10/28 00:47:48;;;;;;;4.30;0.77;;;;;;;-145.69;53.25;52232.50;5074921;28;20780;-83
2023/10/28 00:50:16;;;;;;;3.33;0.80;;;;;;;-145.69;53.30;52202.78;5079190;28;20216;-84
2023/10/28 00:52:44;;;;;;;2.30;0.70;;;;;;;-145.69;53.64;52230.50;5094642;28;20588;-83
2023/10/28 00:55:11;;;;;;;1.93;0.80;;;;;;;-145.69;53.35;52202.78;5095021;28;20202;-82
2023/10/28 00:57:39;;;;;;;2.00;0.60;;;;;;;-145.69;53.73;52218.63;5095106;28;20229;-83
2023/10/28 01:00:09;;;;;;;3.20;1.03;;;;;;;-145.69;53.47;52236.44;5094857;28;20664;-84
2023/10/28 01:02:36;;;;;;;3.47;0.90;;;;;;;-145.69;53.28;52230.50;5094902;28;20213;-84
2023/10/28 01:05:04;;;;;;;4.40;1.03;;;;;;;-145.69;53.38;52254.28;5094808;28;20208;-83
2023/10/28 01:07:31;;;;;;;3.33;1.00;;;;;;;-145.69;53.19;52232.50;5094744;28;20202;-83
2023/10/28 01:09:58;;;;;;;3.17;0.87;;;;;;;-145.69;52.91;52216.66;5094691;28;20202;-84
2023/10/28 01:12:26;;;;;;;2.93;0.90;;;;;;;-145.69;53.06;52226.53;5094788;28;20210;-83
2023/10/28 01:14:53;;;;;;;4.10;0.80;;;;;;;-145.69;52.14;52202.78;5094568;28;20212;-84
2023/10/28 01:17:25;;;;;;;4.60;1.00;;;;;;;-145.69;52.11;52202.78;5088094;28;20226;-83
2023/10/28 01:19:51;;;;;;;4.73;1.07;;;;;;;-145.69;51.83;52218.63;5073927;28;20616;-84
2023/10/28 01:22:19;;;;;;;5.63;1.00;;;;;;;-145.69;51.80;52210.72;5078671;28;20187;-82
2023/10/28 01:24:46;;;;;;;6.47;1.20;;;;;;;-145.69;51.15;52202.78;5074436;28;20199;-83
2023/10/28 01:27:12;;;;;;;3.77;1.20;;;;;;;-145.69;51.20;52208.72;5080119;28;20722;-84
2023/10/28 01:29:39;;;;;;;5.70;1.00;;;;;;;-145.69;51.30;52240.41;5092415;28;20190;-84
2023/10/28 01:32:06;;;;;;;3.33;0.93;;;;;;;-145.69;51.39;52222.59;5092563;28;20195;-83
2023/10/28 01:34:33;;;;;;;5.90;1.30;;;;;;;-145.69;51.66;52210.72;5076351;28;20201;-83
2023/10/28 01:37:00;;;;;;;7.17;1.37;;;;;;;-145.69;51.88;52210.72;5073872;28;20226;-84
2023/10/28 01:39:28;;;;;;;8.60;1.37;;;;;;;-145.69;51.00;52230.50;5074250;28;20207;-83
2023/10/28 01:41:54;;;;;;;2.60;0.85;;;;;;;-145.69;51.66;52192.88;5073677;28;20680;-83
2023/10/28 01:44:21;;;;;;;6.80;1.55;;;;;;;-145.69;51.38;52204.75;5073671;28;20748;-83
2023/10/28 01:46:47;;;;;;;7.80;1.17;;;;;;;-145.69;51.58;52248.34;5073803;28;20213;-83
2023/10/28 01:49:14;;;;;;;7.37;1.30;;;;;;;-145.69;51.51;52190.91;5073688;28;20233;-83
2023/10/28 01:51:40;;;;;;;3.13;1.07;;;;;;;-145.69;51.50;52202.78;5074006;28;20194;-83
2023/10/28 01:54:07;;;;;;;4.70;0.83;;;;;;;-145.69;51.24;52202.78;5073733;28;20206;-84
2023/10/28 01:56:34;;;;;;;8.37;1.57;;;;;;;-145.69;51.31;52226.53;5073450;28;20218;-83
2023/10/28 01:59:01;;;;;;;12.93;1.50;;;;;;;-145.69;52.17;52218.63;5078262;28;20445;-83
2023/10/28 02:01:27;;;;;;;6.67;1.37;;;;;;;-145.69;52.11;52222.59;5094024;28;20607;-83
2023/10/28 02:03:54;;;;;;;3.93;1.00;;;;;;;-145.69;51.20;52204.75;5091138;28;20198;-83
2023/10/28 02:06:21;;;;;;;6.43;1.20;;;;;;;-145.69;51.40;52202.78;5093817;28;20209;-83
2023/10/28 02:08:48;;;;;;;11.27;1.40;;;;;;;-145.69;51.10;52192.88;5093634;28;20202;-84
2023/10/28 02:11:14;;;;;;;5.47;1.13;;;;;;;-145.69;51.35;52214.66;5093342;28;20202;-83
2023/10/28 02:13:42;;;;;;;5.43;1.27;;;;;;;-145.69;51.02;52226.53;5093223;28;20526;-84
2023/10/28 02:16:08;;;;;;;4.07;1.10;;;;;;;-145.69;51.39;52222.59;5093412;28;20214;-83
2023/10/28 02:18:35;;;;;;;6.57;1.33;;;;;;;-145.69;51.30;52246.34;5093563;28;20530;-85
2023/10/28 02:21:01;;;;;;;3.33;1.13;;;;;;;-145.69;51.16;52192.88;5088676;28;20677;-84
2023/10/28 02:23:28;;;;;;;3.93;1.17;;;;;;;-145.69;51.60;52230.50;5093436;28;20213;-84
2023/10/28 02:25:55;;;;;;;5.60;1.73;;;;;;;-145.69;52.25;52218.63;5093347;28;20202;-83
2023/10/28 02:28:21;;;;;;;10.40;1.43;;;;;;;-145.69;52.96;52226.53;5093442;28;20198;-82
2023/10/28 02:30:49;;;;;;;8.53;1.20;;;;;;;-145.69;52.48;52234.47;5093207;28;20210;-84
2023/10/28 02:33:15;;;;;;;4.70;1.27;;;;;;;-145.69;53.36;52202.78;5087109;28;20191;-83
2023/10/28 02:35:42;;;;;;;5.93;1.00;;;;;;;-145.69;53.03;52216.66;5072983;28;20206;-83
2023/10/28 02:38:08;;;;;;;8.77;1.60;;;;;;;-145.69;53.15;52222.59;5072520;28;20229;-83
2023/10/28 02:40:35;;;;;;;2.67;0.90;;;;;;;-145.69;53.60;52226.53;5072986;28;20210;-83
2023/10/28 02:43:01;;;;;;;4.80;0.97;;;;;;;-145.69;53.39;52236.44;5072621;28;20238;-83
2023/10/28 02:45:27;;;;;;;5.50;1.10;;;;;;;-145.69;53.49;52244.38;5072953;28;20558;-84
2023/10/28 02:47:55;;;;;;;4.07;1.00;;;;;;;-145.69;53.42;52214.66;5073016;28;20203;-84
2023/10/28 02:50:22;;;;;;;5.63;0.90;;;;;;;-145.69;53.31;52226.53;5073275;28;20202;-83
2023/10/28 02:52:50;;;;;;;8.30;1.17;;;;;;;-145.69;53.41;52228.53;5080621;28;20527;-84
2023/10/28 02:55:17;;;;;;;2.83;1.10;;;;;;;-145.69;53.29;52202.78;5072936;28;20214;-83
2023/10/28 02:57:43;;;;;;;3.43;1.10;;;;;;;-145.69;53.89;52212.69;5072769;28;20715;-83
2023/10/28 03:00:11;;;;;;;6.77;1.10;;;;;;;-145.69;53.44;52222.59;5072832;28;20210;-82
2023/10/28 03:02:38;;;;;;;4.83;1.20;;;;;;;-145.69;53.65;52206.75;5079373;28;20549;-83
2023/10/28 03:05:06;;;;;;;1.57;0.73;;;;;;;-145.69;53.60;52198.81;5082287;28;20650;-82
2023/10/28 03:07:33;;;;;;;5.17;1.20;;;;;;;-145.69;53.65;52190.91;5072751;28;20209;-83
2023/10/28 03:09:59;;;;;;;2.50;0.80;;;;;;;-145.69;53.57;52226.53;5072720;28;20202;-83
2023/10/28 03:12:26;;;;;;;1.83;0.83;;;;;;;-145.69;54.01;52226.53;5072641;28;20207;-83
2023/10/28 03:14:52;;;;;;;2.40;0.90;;;;;;;-145.69;54.18;52262.19;5072550;28;20207;-83
2023/10/28 03:17:19;;;;;;;3.17;0.97;;;;;;;-145.69;53.89;52214.66;5072465;28;20697;-83
2023/10/28 03:19:45;;;;;;;4.00;1.17;;;;;;;-145.69;53.40;52204.75;5072665;28;20213;-81
2023/10/28 03:22:13;;;;;;;4.67;1.13;;;;;;;-145.69;53.73;52194.88;5089403;28;20198;-83
2023/10/28 03:24:39;;;;;;;7.10;1.07;;;;;;;-145.69;53.76;52254.28;5092729;28;20201;-83
2023/10/28 03:27:06;;;;;;;3.93;1.00;;;;;;;-145.69;53.34;52256.25;5092809;28;20650;-83
2023/10/28 03:29:32;;;;;;;3.87;1.10;;;;;;;-145.69;53.10;52230.50;5092671;28;20668;-83
2023/10/28 03:31:58;;;;;;;3.50;0.80;;;;;;;-145.69;53.32;52196.84;5074075;28;20215;-83
2023/10/28 03:34:26;;;;;;;4.37;0.90;;;;;;;-145.69;52.98;52250.31;5072368;28;20210;-83
2023/10/28 03:36:52;;;;;;;2.47;0.90;;;;;;;-145.69;53.05;52210.72;5072634;28;20276;-83
2023/10/28 03:39:20;;;;;;;3.30;1.00;;;;;;;-145.69;52.79;52210.72;5072510;28;20214;-83
2023/10/28 03:41:46;;;;;;;2.47;0.90;;;;;;;-145.69;53.22;52226.53;5074476;28;20198;-83
2023/10/28 03:44:13;;;;;;;7.07;0.90;;;;;;;-145.69;53.46;52240.41;5075811;28;20234;-83
2023/10/28 03:46:39;;;;;;;2.57;0.80;;;;;;;-145.69;53.78;52242.38;5076112;28;20194;-82
2023/10/28 03:49:06;;;;;;;3.87;0.93;;;;;;;-145.69;53.90;52212.69;5089347;28;20718;-83
2023/10/28 03:51:34;;;;;;;2.37;0.70;;;;;;;-145.69;54.31;52198.81;5081624;28;20199;-83
2023/10/28 03:54:00;;;;;;;3.60;1.07;;;;;;;-145.69;54.59;52246.34;5075816;28;20284;-83
2023/10/28 03:56:29;;;;;;;1.07;0.67;;;;;;;-145.69;54.71;52250.31;5075884;28;20202;-83
2023/10/28 03:58:55;;;;;;;5.60;0.90;;;;;;;-145.69;54.66;52230.50;5075417;28;20234;-83
2023/10/28 04:01:21;;;;;;;4.00;1.00;;;;;;;-145.69;54.67;52222.59;5075825;28;20203;-83
2023/10/28 04:03:48;;;;;;;6.73;1.13;;;;;;;-145.69;54.23;52226.53;5075643;28;20572;-83
2023/10/28 04:06:14;;;;;;;5.57;0.90;;;;;;;-145.69;53.96;52238.44;5075754;28;20203;-83
2023/10/28 04:08:41;;;;;;;5.83;1.63;;;;;;;-145.69;53.78;52214.66;5075851;28;20207;-83
2023/10/28 04:11:10;;;;;;;3.77;0.70;;;;;;;-145.69;53.88;52194.88;5075481;28;20565;-83
2023/10/28 04:13:39;;;;;;;3.47;0.73;;;;;;;-145.69;53.66;52240.41;5077155;28;20195;-84
2023/10/28 04:16:05;;;;;;;7.87;0.63;;;;;;;-145.69;53.53;52226.53;5079697;28;20195;-83
2023/10/28 04:18:32;;;;;;;5.37;0.73;;;;;;;-145.69;53.55;52264.16;5081708;28;20222;-83
2023/10/28 04:20:58;;;;;;;1.83;0.90;;;;;;;-145.69;53.24;52222.59;5088549;28;20283;-82
2023/10/28 04:23:25;;;;;;;1.13;0.80;;;;;;;-145.69;52.85;52244.38;5075394;28;20195;-83
2023/10/28 04:25:52;;;;;;;5.67;1.00;;;;;;;-145.69;53.14;52218.63;5075202;28;20198;-83
2023/10/28 04:28:18;;;;;;;3.93;1.10;;;;;;;-145.69;52.89;52214.66;5075526;28;20208;-83
2023/10/28 04:30:56;;;;;;;4.20;0.80;;;;;;;-145.69;52.97;52246.34;5075308;28;20210;-83
2023/10/28 04:33:23;;;;;;;5.20;0.93;;;;;;;-145.69;52.56;52206.75;5075251;28;20600;-83
2023/10/28 04:35:49;;;;;;;6.27;1.30;;;;;;;-145.69;52.59;52260.22;5075206;28;20553;-83
2023/10/28 04:38:16;;;;;;;2.93;0.83;;;;;;;-145.69;52.35;52204.75;5075017;28;20234;-83
2023/10/28 04:40:43;;;;;;;1.73;0.73;;;;;;;-145.69;51.97;52238.44;5075289;28;20222;-83
2023/10/28 04:43:09;;;;;;;4.30;0.80;;;;;;;-145.69;51.91;52204.75;5074807;28;20608;-82
2023/10/28 04:45:36;;;;;;;2.90;0.80;;;;;;;-145.69;52.03;52266.16;5093321;28;20194;-83
2023/10/28 04:48:06;;;;;;;2.83;0.83;;;;;;;-145.69;51.88;52206.75;5082476;28;20206;-83
2023/10/28 04:50:32;;;;;;;2.10;0.70;;;;;;;-145.69;51.49;52206.75;5074745;28;20289;-84
2023/10/28 04:52:59;;;;;;;2.20;0.70;;;;;;;-145.69;51.46;52244.38;5075339;28;20203;-83
2023/10/28 04:55:25;;;;;;;6.40;0.77;;;;;;;-145.69;51.63;52222.59;5054855;28;20207;-85
2023/10/28 04:57:52;;;;;;;3.60;0.70;;;;;;;-145.69;51.74;52222.59;5054945;28;20223;-82
2023/10/28 05:00:18;;;;;;;4.90;0.70;;;;;;;-145.69;51.43;52216.66;5054609;28;20202;-83
2023/10/28 05:02:45;;;;;;;2.53;0.60;;;;;;;-145.69;52.31;52216.66;5054726;28;20203;-83
2023/10/28 05:05:13;;;;;;;2.23;0.70;;;;;;;-145.69;52.71;52208.72;5054496;28;20257;-83
2023/10/28 05:07:40;;;;;;;1.10;0.70;;;;;;;-145.69;53.05;52266.16;5054678;28;20257;-82
2023/10/28 05:10:09;;;;;;;4.47;1.03;;;;;;;-145.69;53.75;52254.28;5054552;28;20204;-83
2023/10/28 05:12:35;;;;;;;2.53;0.80;;;;;;;-145.69;55.00;52226.53;5054631;28;20203;-83
2023/10/28 05:15:02;;;;;;;2.03;0.80;;;;;;;-145.69;54.68;52244.38;5069805;28;20202;-82
2023/10/28 05:17:29;;;;;;;6.23;1.00;;;;;;;-145.69;54.41;52242.38;5090966;28;20229;-83
2023/10/28 05:19:55;;;;;;;3.43;0.83;;;;;;;-145.69;55.21;52260.22;5094259;28;20653;-83
2023/10/28 05:22:23;;;;;;;3.23;1.27;;;;;;;-145.69;55.54;52232.50;5094624;28;20205;-83
2023/10/28 05:24:52;;;;;;;2.10;0.93;;;;;;;-145.69;55.62;52234.47;5063178;28;20207;-82
2023/10/28 05:27:18;;;;;;;1.10;0.83;;;;;;;-145.69;55.33;52242.38;5054225;28;20206;-83
2023/10/28 05:29:45;;;;;;;5.17;0.90;;;;;;;-145.69;55.90;52276.06;5053976;28;20199;-83
2023/10/28 05:32:12;;;;;;;4.13;0.90;;;;;;;-145.69;56.12;52270.13;5054547;28;20195;-82
2023/10/28 05:34:38;;;;;;;3.10;0.97;;;;;;;-145.69;55.30;52238.44;5073824;28;20217;-83
2023/10/28 05:37:07;;;;;;;3.70;0.87;;;;;;;-145.69;55.26;52236.44;5073925;28;20214;-83
2023/10/28 05:39:34;;;;;;;6.63;1.20;;;;;;;-145.69;55.54;52240.41;5073992;28;20199;-82
2023/10/28 05:42:01;;;;;;;3.13;1.00;;;;;;;-145.69;54.89;52244.38;5073558;28;20209;-82
2023/10/28 05:44:27;;;;;;;12.37;1.60;;;;;;;-145.69;54.48;52238.44;5077002;28;20267;-83
2023/10/28 05:46:55;;;;;;;1.80;1.00;;;;;;;-145.69;54.29;52212.69;5094085;28;20209;-83
2023/10/28 05:49:22;;;;;;;4.20;0.90;;;;;;;-145.69;53.64;52226.53;5093607;28;20649;-83
2023/10/28 05:51:50;;;;;;;6.23;0.93;;;;;;;-145.69;53.35;52252.28;5093913;28;20284;-83
2023/10/28 05:54:16;;;;;;;2.87;1.00;;;;;;;-145.69;53.84;52212.69;5082671;28;20195;-82
2023/10/28 05:56:44;;;;;;;2.90;1.17;;;;;;;-145.69;53.53;52238.44;5073510;28;20206;-83
2023/10/28 05:59:11;;;;;;;4.30;0.90;;;;;;;-145.69;53.81;52226.53;5073438;28;20702;-82
2023/10/28 06:01:38;;;;;;;3.63;1.00;;;;;;;-145.69;53.51;52214.66;5073394;28;20657;-83
2023/10/28 06:04:04;;;;;;;3.90;0.93;;;;;;;-145.69;52.67;52218.63;5073233;28;20206;-83
2023/10/28 06:06:31;;;;;;;2.43;0.80;;;;;;;-145.69;53.24;52230.50;5073710;28;20199;-83
2023/10/28 06:08:58;;;;;;;3.90;0.90;;;;;;;-145.69;53.12;52192.88;5074393;28;20228;-84
2023/10/28 06:11:24;;;;;;;8.23;1.13;;;;;;;-145.69;53.38;52248.34;5073451;28;20206;-82
2023/10/28 06:13:52;;;;;;;1.67;0.63;;;;;;;-145.69;52.27;52218.63;5073825;28;20542;-84
2023/10/28 06:16:19;;;;;;;3.30;0.90;;;;;;;-145.69;52.52;52202.78;5075539;28;20256;-83
2023/10/28 06:18:46;;;;;;;2.60;0.97;;;;;;;-145.69;52.44;52218.63;5073288;28;20264;-82
2023/10/28 06:21:14;;;;;;;7.30;1.40;;;;;;;-145.69;51.90;52238.44;5073198;28;20206;-83
2023/10/28 06:23:40;;;;;;;2.80;1.10;;;;;;;-145.69;51.87;52214.66;5073278;28;20198;-83
2023/10/28 06:26:08;;;;;;;3.77;1.03;;;;;;;-145.69;51.53;52226.53;5073156;28;20199;-83
2023/10/28 06:28:34;;;;;;;4.37;1.10;;;;;;;-145.69;52.11;52171.09;5073125;28;20206;-83
2023/10/28 06:31:02;;;;;;;5.37;1.13;;;;;;;-145.69;50.86;52206.75;5073169;28;20211;-84
2023/10/28 06:33:29;;;;;;;7.43;1.93;;;;;;;-145.69;51.69;52202.78;5073081;28;20225;-83
2023/10/28 06:35:55;;;;;;;3.77;1.37;;;;;;;-145.69;51.86;52212.69;5073071;28;20206;-83
2023/10/28 06:38:25;;;;;;;2.87;1.07;;;;;;;-145.69;51.76;52218.63;5073048;28;20285;-83
2023/10/28 06:40:52;;;;;;;4.43;1.43;;;;;;;-145.69;51.56;52186.94;5072778;28;20206;-83
2023/10/28 06:43:18;;;;;;;5.60;1.97;;;;;;;-145.69;51.62;52283.97;5072784;28;20265;-82
2023/10/28 06:45:45;;;;;;;3.67;1.40;;;;;;;-145.69;51.85;52214.66;5073754;28;20203;-83
2023/10/28 06:48:13;;;;;;;6.63;1.10;;;;;;;-145.69;51.84;52214.66;5073061;28;20199;-83
2023/10/28 06:50:39;;;;;;;3.77;1.23;;;;;;;-145.69;52.09;52220.59;5073059;28;20297;-83
2023/10/28 06:53:06;;;;;;;4.10;1.17;;;;;;;-145.69;51.90;52198.81;5072890;28;20654;-83
2023/10/28 06:55:32;;;;;;;4.07;1.10;;;;;;;-145.69;52.96;52208.72;5072897;28;20195;-83
2023/10/28 06:57:59;;;;;;;3.38;1.35;;;;;;;-145.69;53.15;52190.91;5073195;28;20301;-81
2023/10/28 07:00:28;;;;;;;3.53;1.73;;;;;;;-145.69;52.02;52214.66;5073027;28;20226;-83
2023/10/28 07:02:55;;;;;;;5.27;1.47;;;;;;;-145.69;51.85;52194.88;5072836;28;20199;-82
2023/10/28 07:05:24;;;;;;;3.97;1.25;;;;;;;-145.69;51.84;52218.63;5072899;28;20198;-83
2023/10/28 07:07:51;;;;;;;3.67;1.10;;;;;;;-145.69;51.77;52222.59;5072709;28;20616;-83
2023/10/28 07:10:17;;;;;;;3.87;0.97;;;;;;;-145.69;51.67;52196.84;5086573;28;20657;-83
2023/10/28 07:12:44;;;;;;;5.37;1.40;;;;;;;-145.69;51.62;52226.53;5093034;28;20220;-83
2023/10/28 07:15:11;;;;;;;3.47;0.90;;;;;;;-145.69;50.82;52186.94;5086878;28;20195;-83
2023/10/28 07:17:39;;;;;;;1.90;1.00;;;;;;;-145.69;50.52;52216.66;5073042;28;20249;-83
2023/10/28 07:20:07;;;;;;;5.27;1.33;;;;;;;-145.69;50.69;52234.47;5076786;28;20253;-83
2023/10/28 07:22:35;;;;;;;2.33;1.00;;;;;;;-145.69;50.59;52200.81;5076807;28;20210;-82
2023/10/28 07:25:04;;;;;;;2.95;0.63;;;;;;;-145.69;50.37;52190.91;5076540;28;20194;-83
2023/10/28 07:27:31;;;;;;;2.55;0.80;;;;;;;-145.69;50.29;52206.75;5084605;28;20190;-84
2023/10/28 07:29:59;;;;;;;4.03;1.10;;;;;;;-145.69;49.52;52204.75;5096740;28;20661;-83
2023/10/28 07:32:25;;;;;;;3.65;0.90;;;;;;;-145.69;49.83;52182.97;5096909;28;20209;-82
2023/10/28 07:34:52;;;;;;;3.95;0.93;;;;;;;-145.69;49.31;52198.81;5095239;28;20233;-83
2023/10/28 07:37:18;;;;;;;4.67;0.80;;;;;;;-145.69;48.87;52171.09;5096589;28;20206;-83
2023/10/28 07:39:46;;;;;;;6.38;0.88;;;;;;;-145.69;48.57;52186.94;5095550;28;20229;-83
2023/10/28 07:42:14;;;;;;;6.05;0.90;;;;;;;-145.69;48.25;52188.91;5076446;28;20234;-84
2023/10/28 07:44:40;;;;;;;2.67;0.73;;;;;;;-145.69;48.87;52181.00;5077340;28;20580;-83
2023/10/28 07:47:08;;;;;;;5.20;1.08;;;;;;;-145.69;47.93;52204.75;5094436;28;20199;-83
2023/10/28 07:49:34;;;;;;;1.70;0.82;;;;;;;-145.69;47.58;52214.66;5096244;28;20202;-84
2023/10/28 07:52:00;;;;;;;2.30;0.82;;;;;;;-145.69;47.23;52186.94;5096317;28;20205;-82
2023/10/28 07:54:27;;;;;;;3.65;0.90;;;;;;;-145.69;47.56;52163.19;5096340;28;20209;-83
2023/10/28 07:56:55;;;;;;;5.88;0.90;;;;;;;-145.69;47.04;52169.13;5096483;28;20233;-83
2023/10/28 07:59:22;;;;;;;2.72;1.00;;;;;;;-145.69;47.20;52186.94;5096442;28;20232;-83
2023/10/28 08:01:48;;;;;;;1.17;0.63;;;;;;;-145.69;46.64;52157.25;5094688;28;20247;-82
2023/10/28 08:04:15;;;;;;;3.53;0.70;;;;;;;-145.69;46.94;52159.22;5094784;28;20202;-83
2023/10/28 08:06:42;;;;;;;2.88;0.85;;;;;;;-145.69;46.56;52192.88;5087536;28;20203;-83
2023/10/28 08:09:09;;;;;;;3.95;1.10;;;;;;;-145.69;46.73;52167.13;5074249;28;20601;-84
2023/10/28 08:11:35;;;;;;;6.65;1.25;;;;;;;-145.69;46.93;52173.09;5083519;28;20193;-84
2023/10/28 08:14:05;;;;;;;3.65;1.00;;;;;;;-145.69;46.86;52175.06;5092190;28;20650;-84
2023/10/28 08:16:32;;;;;;;5.00;0.82;;;;;;;-145.69;45.81;52167.13;5075271;28;20744;-83
2023/10/28 08:18:58;;;;;;;6.03;1.60;;;;;;;-145.69;46.47;52135.47;5075144;28;20226;-83
2023/10/28 08:21:27;;;;;;;4.38;1.00;;;;;;;-145.69;45.59;52159.22;5075714;28;20234;-83
2023/10/28 08:23:53;;;;;;;2.35;0.70;;;;;;;-145.69;45.07;52141.41;5075673;28;20198;-82
2023/10/28 08:26:19;;;;;;;3.63;0.88;;;;;;;-145.69;45.13;52139.41;5075017;28;20194;-83
2023/10/28 08:28:49;;;;;;;6.25;1.08;;;;;;;-145.69;44.38;52171.09;5074735;28;20554;-83
2023/10/28 08:31:17;;;;;;;1.92;0.93;;;;;;;-145.69;44.68;52127.53;5086655;28;20285;-84
2023/10/28 08:33:44;;;;;;;3.55;0.70;;;;;;;-145.69;44.25;52147.34;5086431;28;20199;-83
2023/10/28 08:36:11;;;;;;;4.20;0.90;;;;;;;-145.69;44.07;52151.28;5086117;28;20244;-84
2023/10/28 08:38:38;;;;;;;1.65;0.80;;;;;;;-145.69;44.89;52135.47;5095466;28;20226;-83
2023/10/28 08:41:05;;;;;;;5.47;1.23;;;;;;;-145.69;43.89;52159.22;5076086;28;20285;-83
2023/10/28 08:43:33;;;;;;;3.13;1.30;;;;;;;-145.69;43.89;52127.53;5075591;28;20775;-83
2023/10/28 08:46:01;;;;;;;2.00;0.90;;;;;;;-145.69;44.34;52155.25;5076629;28;20268;-83
2023/10/28 08:48:30;;;;;;;2.97;0.90;;;;;;;-145.69;44.18;52135.47;5075228;28;20190;-83
2023/10/28 08:51:00;;;;;;;2.58;1.23;;;;;;;-145.69;43.73;52143.38;5075807;28;20195;-84
2023/10/28 08:53:27;;;;;;;2.90;0.70;;;;;;;-145.69;43.97;52169.13;5075987;28;20778;-84
2023/10/28 08:55:54;;;;;;;1.58;0.75;;;;;;;-145.69;43.02;52127.53;5075890;28;20206;-83
2023/10/28 08:58:21;;;;;;;3.72;0.68;;;;;;;-145.69;42.82;52147.34;5074944;28;20207;-84
2023/10/28 09:00:48;;;;;;;2.28;1.02;;;;;;;-145.69;42.46;52133.47;5082277;28;20240;-83
2023/10/28 09:03:15;;;;;;;6.03;1.15;;;;;;;-145.69;42.55;52133.47;5092247;28;20207;-83
2023/10/28 09:05:43;;;;;;;2.08;0.95;;;;;;;-145.69;42.22;52117.63;5074848;28;20203;-83
2023/10/28 09:08:10;;;;;;;4.00;0.85;;;;;;;-145.69;41.74;52135.47;5075028;28;20198;-83
2023/10/28 09:10:37;;;;;;;4.85;0.90;;;;;;;-145.69;42.26;52123.56;5074611;28;20201;-84
2023/10/28 09:13:07;;;;;;;4.43;0.70;;;;;;;-145.69;42.00;52135.47;5074494;28;20216;-84
2023/10/28 09:15:34;;;;;;;4.95;0.80;;;;;;;-145.69;42.28;52129.50;5074645;28;20183;-84
2023/10/28 09:18:01;;;;;;;4.68;0.90;;;;;;;-145.69;42.90;52141.41;5074773;28;20205;-83
2023/10/28 09:20:28;;;;;;;8.57;0.90;;;;;;;-145.69;42.05;52127.53;5073964;28;20708;-83
2023/10/28 09:22:56;;;;;;;3.70;0.80;;;;;;;-145.69;42.33;52125.56;5071907;28;20207;-85
2023/10/28 09:25:22;;;;;;;5.13;1.00;;;;;;;-145.69;42.90;52151.28;5074246;28;20203;-82
2023/10/28 09:27:50;;;;;;;5.43;0.90;;;;;;;-145.69;42.33;52125.56;5073958;28;20202;-82
2023/10/28 09:30:17;;;;;;;3.97;1.00;;;;;;;-145.69;42.19;52163.19;5076117;28;20275;-82
2023/10/28 09:32:45;;;;;;;3.03;0.90;;;;;;;-145.69;42.26;52111.69;5083714;28;20194;-82
2023/10/28 09:35:13;;;;;;;3.88;0.60;;;;;;;-145.69;42.92;52151.28;5073947;28;20202;-82
2023/10/28 09:37:41;;;;;;;4.10;1.08;;;;;;;-145.69;42.47;52139.41;5073807;28;20260;-82
2023/10/28 09:40:12;;;;;;;2.97;0.95;;;;;;;-145.69;42.51;52125.56;5072771;28;20222;-82
2023/10/28 09:42:39;;;;;;;3.00;1.30;;;;;;;-145.69;41.51;52143.38;5073593;28;20260;-82
2023/10/28 09:45:08;;;;;;;4.43;0.98;;;;;;;-145.69;41.55;52129.50;5073600;28;20199;-82
2023/10/28 09:47:46;;;;;;;3.75;0.80;;;;;;;-145.69;41.13;52117.63;5073730;28;20283;-82
2023/10/28 09:50:14;;;;;;;5.05;1.10;;;;;;;-145.69;41.15;52115.66;5073770;28;20649;-83
2023/10/28 09:52:43;;;;;;;4.80;0.93;;;;;;;-145.69;40.80;52111.69;5074035;28;20194;-83
2023/10/28 09:55:16;;;;;;;4.43;0.80;;;;;;;-145.69;40.82;52131.50;5071606;28;20840;-84
2023/10/28 09:57:44;;;;;;;1.63;0.80;;;;;;;-145.69;41.22;52125.56;5073719;28;20194;-84
2023/10/28 10:00:17;;;;;;;4.00;0.73;;;;;;;-145.69;40.65;52095.84;5073539;28;20316;-82
2023/10/28 10:02:56;;;;;;;4.93;1.08;;;;;;;-145.69;40.67;52139.41;5073426;28;20229;-82
2023/10/28 10:05:30;;;;;;;4.07;1.00;;;;;;;-145.69;40.98;52109.72;5073282;28;20213;-83
2023/10/28 10:07:56;;;;;;;5.10;1.15;;;;;;;-145.69;40.87;52097.84;5073602;28;20650;-83
2023/10/28 10:10:24;;;;;;;2.78;1.15;;;;;;;-145.69;40.91;52115.66;5073728;28;20293;-83
2023/10/28 10:13:02;;;;;;;4.00;0.90;;;;;;;-145.69;41.20;52091.88;5073332;28;20205;-82
2023/10/28 10:15:32;;;;;;;5.40;1.10;;;;;;;-145.69;41.09;52139.41;5077182;28;20199;-84
2023/10/28 10:18:08;;;;;;;8.35;1.20;;;;;;;-145.69;41.70;52123.56;5080539;28;20292;-82
2023/10/28 10:20:36;;;;;;;8.65;1.20;;;;;;;-145.69;40.87;52147.34;5073476;28;20218;-82
2023/10/28 10:23:04;;;;;;;5.78;1.50;;;;;;;-145.69;41.42;52115.66;5073557;28;20198;-82
2023/10/28 10:25:39;;;;;;;4.68;1.00;;;;;;;-145.69;41.15;52119.63;5075029;28;20269;-83
2023/10/28 10:28:13;;;;;;;5.40;1.00;;;;;;;-145.69;40.99;52157.25;5085342;28;20194;-82
2023/10/28 10:30:40;;;;;;;9.13;1.70;;;;;;;-145.69;41.48;52103.78;5073187;28;20714;-81
2023/10/28 10:33:07;;;;;;;9.75;1.42;;;;;;;-145.69;41.10;52107.72;5072914;28;20719;-82
2023/10/28 10:35:36;;;;;;;4.72;1.23;;;;;;;-145.69;40.68;52133.47;5073259;28;20201;-81
2023/10/28 10:38:03;;;;;;;2.13;0.98;;;;;;;-145.69;40.22;52085.94;5073517;28;20616;-82
2023/10/28 10:40:32;;;;;;;9.77;1.65;;;;;;;-145.69;40.70;52105.75;5073051;28;20226;-82
2023/10/28 10:43:05;;;;;;;5.50;1.40;;;;;;;-145.69;41.43;52119.63;5073259;28;20238;-82
2023/10/28 10:45:34;;;;;;;6.70;1.10;;;;;;;-145.69;41.59;52151.28;5073460;28;20645;-82
2023/10/28 10:48:01;;;;;;;4.88;1.20;;;;;;;-145.69;40.90;52107.72;5073386;28;20289;-81
2023/10/28 10:50:30;;;;;;;3.42;1.35;;;;;;;-145.69;40.71;52127.53;5076108;28;20194;-82
2023/10/28 10:52:57;;;;;;;7.32;1.50;;;;;;;-145.69;40.42;52095.84;5079902;28;20202;-82
2023/10/28 10:55:26;;;;;;;6.28;1.33;;;;;;;-145.69;40.29;52115.66;5079686;28;20195;-82
2023/10/28 10:57:52;;;;;;;4.85;1.05;;;;;;;-145.69;40.42;52153.28;5059849;28;20214;-82
2023/10/28 11:00:21;;;;;;;6.15;1.40;;;;;;;-145.69;40.96;52135.47;5060119;28;20229;-82
2023/10/28 11:03:31;;;;;;;;;;;;;;;;;;;;;
2023/10/28 11:05:59;;;;;;;4.68;1.20;;;;;;;-145.69;40.42;52119.63;5071322;28;20202;-82
2023/10/28 11:08:26;;;;;;;5.05;0.88;;;;;;;-145.69;40.37;52105.75;5079968;28;20194;-81
2023/10/28 11:10:53;;;;;;;4.20;1.08;;;;;;;-145.69;40.21;52111.69;5079464;28;20198;-82
2023/10/28 11:13:20;;;;;;;2.88;1.08;;;;;;;-145.69;40.03;52125.56;5079640;28;20554;-81
2023/10/28 11:15:49;;;;;;;8.23;1.33;;;;;;;-145.69;39.90;52083.97;5079501;28;20608;-82
2023/10/28 11:18:15;;;;;;;2.80;0.90;;;;;;;-145.69;40.11;52080.00;5079428;28;20290;-81
2023/10/28 11:20:43;;;;;;;5.70;1.25;;;;;;;-145.69;39.96;52111.69;5079638;28;20229;-83